sensor_id;sensor_type;location;lat;lon;timestamp;temperature;humidity
6752;DHT22;3413;47.680;9.166;2023-03-20T00:01:29;13.90;85.10
6752;DHT22;3413;47.680;9.166;2023-03-20T00:06:31;13.80;85.10
6752;DHT22;3413;47.680;9.166;2023-03-20T00:11:35;13.80;85.10
6752;DHT22;3413;47.680;9.166;2023-03-20T00:16:43;13.80;85.10
6752;DHT22;3413;47.680;9.166;2023-03-20T00:21:46;13.60;85.00
6752;DHT22;3413;47.680;9.166;2023-03-20T00:26:50;13.50;85.00
6752;DHT22;3413;47.680;9.166;2023-03-20T00:31:53;13.50;85.10
6752;DHT22;3413;47.680;9.166;2023-03-20T00:36:56;13.50;85.00
6752;DHT22;3413;47.680;9.166;2023-03-20T00:42:03;13.30;84.80
6752;DHT22;3413;47.680;9.166;2023-03-20T00:47:18;13.20;85.00
6752;DHT22;3413;47.680;9.166;2023-03-20T00:52:22;13.10;84.90
6752;DHT22;3413;47.680;9.166;2023-03-20T00:57:52;12.90;84.90
6752;DHT22;3413;47.680;9.166;2023-03-20T01:02:56;13.00;85.00
6752;DHT22;3413;47.680;9.166;2023-03-20T01:08:01;13.10;85.00
6752;DHT22;3413;47.680;9.166;2023-03-20T01:13:03;13.20;85.00
6752;DHT22;3413;47.680;9.166;2023-03-20T01:18:04;13.20;85.10
6752;DHT22;3413;47.680;9.166;2023-03-20T01:23:08;13.30;85.30
6752;DHT22;3413;47.680;9.166;2023-03-20T01:28:19;13.30;85.20
6752;DHT22;3413;47.680;9.166;2023-03-20T01:33:23;13.20;85.40
6752;DHT22;3413;47.680;9.166;2023-03-20T01:38:29;13.30;85.50
6752;DHT22;3413;47.680;9.166;2023-03-20T01:43:33;13.30;85.60
6752;DHT22;3413;47.680;9.166;2023-03-20T01:54:03;13.30;85.90
6752;DHT22;3413;47.680;9.166;2023-03-20T01:59:16;13.30;85.90
6752;DHT22;3413;47.680;9.166;2023-03-20T02:04:34;13.40;85.90
6752;DHT22;3413;47.680;9.166;2023-03-20T02:09:42;13.20;85.80
6752;DHT22;3413;47.680;9.166;2023-03-20T02:14:50;13.00;85.60
6752;DHT22;3413;47.680;9.166;2023-03-20T02:20:26;13.00;85.70
6752;DHT22;3413;47.680;9.166;2023-03-20T02:43:02;13.30;86.20
6752;DHT22;3413;47.680;9.166;2023-03-20T02:53:27;13.20;86.40
6752;DHT22;3413;47.680;9.166;2023-03-20T02:58:37;13.10;86.50
6752;DHT22;3413;47.680;9.166;2023-03-20T03:08:50;12.90;86.30
6752;DHT22;3413;47.680;9.166;2023-03-20T03:13:55;12.90;86.60
6752;DHT22;3413;47.680;9.166;2023-03-20T03:19:19;12.90;86.60
6752;DHT22;3413;47.680;9.166;2023-03-20T03:24:35;12.90;86.70
6752;DHT22;3413;47.680;9.166;2023-03-20T03:29:49;13.00;86.80
6752;DHT22;3413;47.680;9.166;2023-03-20T03:34:55;13.00;86.70
6752;DHT22;3413;47.680;9.166;2023-03-20T03:45:18;13.00;86.80
6752;DHT22;3413;47.680;9.166;2023-03-20T03:50:27;13.00;86.80
6752;DHT22;3413;47.680;9.166;2023-03-20T03:55:38;13.00;86.80
6752;DHT22;3413;47.680;9.166;2023-03-20T04:00:48;13.00;86.90
6752;DHT22;3413;47.680;9.166;2023-03-20T04:05:54;13.00;87.00
6752;DHT22;3413;47.680;9.166;2023-03-20T04:11:02;13.10;87.20
6752;DHT22;3413;47.680;9.166;2023-03-20T04:16:05;13.10;87.20
6752;DHT22;3413;47.680;9.166;2023-03-20T04:21:10;13.10;87.10
6752;DHT22;3413;47.680;9.166;2023-03-20T04:26:16;13.10;86.80
6752;DHT22;3413;47.680;9.166;2023-03-20T04:31:19;13.10;86.80
6752;DHT22;3413;47.680;9.166;2023-03-20T04:36:44;13.10;86.80
6752;DHT22;3413;47.680;9.166;2023-03-20T04:41:48;13.00;86.80
6752;DHT22;3413;47.680;9.166;2023-03-20T04:46:51;13.00;87.00
6752;DHT22;3413;47.680;9.166;2023-03-20T04:51:54;12.90;87.10
6752;DHT22;3413;47.680;9.166;2023-03-20T04:57:09;12.90;87.10
6752;DHT22;3413;47.680;9.166;2023-03-20T05:02:15;13.00;87.30
6752;DHT22;3413;47.680;9.166;2023-03-20T05:07:19;13.00;87.30
6752;DHT22;3413;47.680;9.166;2023-03-20T05:12:28;13.10;87.40
6752;DHT22;3413;47.680;9.166;2023-03-20T05:17:33;13.20;87.50
6752;DHT22;3413;47.680;9.166;2023-03-20T05:22:48;13.30;87.50
6752;DHT22;3413;47.680;9.166;2023-03-20T05:28:24;13.30;87.60
6752;DHT22;3413;47.680;9.166;2023-03-20T05:33:55;13.20;88.10
6752;DHT22;3413;47.680;9.166;2023-03-20T05:39:11;13.30;87.60
6752;DHT22;3413;47.680;9.166;2023-03-20T05:44:18;13.20;87.50
6752;DHT22;3413;47.680;9.166;2023-03-20T05:49:31;13.10;87.50
6752;DHT22;3413;47.680;9.166;2023-03-20T05:54:40;13.10;87.70
6752;DHT22;3413;47.680;9.166;2023-03-20T05:59:55;13.10;87.70
6752;DHT22;3413;47.680;9.166;2023-03-20T06:05:00;13.10;87.70
6752;DHT22;3413;47.680;9.166;2023-03-20T06:10:12;13.10;87.80
6752;DHT22;3413;47.680;9.166;2023-03-20T06:15:15;13.00;87.70
6752;DHT22;3413;47.680;9.166;2023-03-20T06:20:25;13.00;87.90
6752;DHT22;3413;47.680;9.166;2023-03-20T06:25:31;13.00;88.00
6752;DHT22;3413;47.680;9.166;2023-03-20T06:30:41;13.00;87.90
6752;DHT22;3413;47.680;9.166;2023-03-20T06:35:53;13.10;88.00
6752;DHT22;3413;47.680;9.166;2023-03-20T06:40:56;13.00;88.00
6752;DHT22;3413;47.680;9.166;2023-03-20T06:45:58;13.10;88.20
6752;DHT22;3413;47.680;9.166;2023-03-20T06:51:04;13.20;88.40
6752;DHT22;3413;47.680;9.166;2023-03-20T06:56:12;13.20;88.30
6752;DHT22;3413;47.680;9.166;2023-03-20T07:01:16;13.20;88.40
6752;DHT22;3413;47.680;9.166;2023-03-20T07:06:21;13.20;88.30
6752;DHT22;3413;47.680;9.166;2023-03-20T07:11:25;13.20;88.10
6752;DHT22;3413;47.680;9.166;2023-03-20T07:16:30;13.30;88.10
6752;DHT22;3413;47.680;9.166;2023-03-20T07:21:34;13.20;88.00
6752;DHT22;3413;47.680;9.166;2023-03-20T07:26:36;13.10;88.10
6752;DHT22;3413;47.680;9.166;2023-03-20T07:31:42;13.20;88.10
6752;DHT22;3413;47.680;9.166;2023-03-20T07:36:51;13.20;88.10
6752;DHT22;3413;47.680;9.166;2023-03-20T07:41:58;13.10;88.20
6752;DHT22;3413;47.680;9.166;2023-03-20T07:47:15;13.10;88.40
6752;DHT22;3413;47.680;9.166;2023-03-20T07:52:20;13.10;88.40
6752;DHT22;3413;47.680;9.166;2023-03-20T07:57:22;13.10;88.50
6752;DHT22;3413;47.680;9.166;2023-03-20T08:02:24;13.10;88.70
6752;DHT22;3413;47.680;9.166;2023-03-20T08:07:26;13.30;89.00
6752;DHT22;3413;47.680;9.166;2023-03-20T08:12:30;13.50;89.20
6752;DHT22;3413;47.680;9.166;2023-03-20T08:17:32;13.60;89.10
6752;DHT22;3413;47.680;9.166;2023-03-20T08:22:34;13.60;89.30
6752;DHT22;3413;47.680;9.166;2023-03-20T08:27:36;13.70;89.50
6752;DHT22;3413;47.680;9.166;2023-03-20T08:32:39;14.00;90.00
6752;DHT22;3413;47.680;9.166;2023-03-20T08:37:41;14.10;90.00
6752;DHT22;3413;47.680;9.166;2023-03-20T08:42:43;14.20;90.00
6752;DHT22;3413;47.680;9.166;2023-03-20T08:47:48;14.40;90.10
6752;DHT22;3413;47.680;9.166;2023-03-20T08:52:50;14.50;90.10
6752;DHT22;3413;47.680;9.166;2023-03-20T08:57:52;14.60;90.00
6752;DHT22;3413;47.680;9.166;2023-03-20T09:02:55;15.00;90.40
6752;DHT22;3413;47.680;9.166;2023-03-20T09:07:57;15.40;90.80
6752;DHT22;3413;47.680;9.166;2023-03-20T09:13:00;15.70;91.00
6752;DHT22;3413;47.680;9.166;2023-03-20T09:18:17;16.00;91.10
6752;DHT22;3413;47.680;9.166;2023-03-20T09:23:19;16.20;91.20
6752;DHT22;3413;47.680;9.166;2023-03-20T09:28:21;16.50;91.40
6752;DHT22;3413;47.680;9.166;2023-03-20T09:33:23;16.80;91.30
6752;DHT22;3413;47.680;9.166;2023-03-20T09:38:25;16.70;91.00
6752;DHT22;3413;47.680;9.166;2023-03-20T09:59:15;16.10;90.50
6752;DHT22;3413;47.680;9.166;2023-03-20T10:04:19;15.80;90.30
6752;DHT22;3413;47.680;9.166;2023-03-20T10:09:24;15.60;90.30
6752;DHT22;3413;47.680;9.166;2023-03-20T10:14:45;15.50;90.30
6752;DHT22;3413;47.680;9.166;2023-03-20T10:20:01;15.50;90.30
6752;DHT22;3413;47.680;9.166;2023-03-20T10:25:24;15.40;90.30
6752;DHT22;3413;47.680;9.166;2023-03-20T10:41:54;15.40;90.10
6752;DHT22;3413;47.680;9.166;2023-03-20T10:46:58;15.50;90.00
6752;DHT22;3413;47.680;9.166;2023-03-20T10:52:26;15.50;90.10
6752;DHT22;3413;47.680;9.166;2023-03-20T10:57:33;15.60;90.10
6752;DHT22;3413;47.680;9.166;2023-03-20T11:02:36;15.60;90.10
6752;DHT22;3413;47.680;9.166;2023-03-20T11:07:38;15.70;90.20
6752;DHT22;3413;47.680;9.166;2023-03-20T11:12:47;15.80;90.20
6752;DHT22;3413;47.680;9.166;2023-03-20T11:17:59;16.00;90.30
6752;DHT22;3413;47.680;9.166;2023-03-20T11:23:05;16.30;90.40
6752;DHT22;3413;47.680;9.166;2023-03-20T11:28:31;16.60;90.60
6752;DHT22;3413;47.680;9.166;2023-03-20T11:33:37;16.90;90.80
6752;DHT22;3413;47.680;9.166;2023-03-20T11:38:44;17.20;91.10
6752;DHT22;3413;47.680;9.166;2023-03-20T11:43:46;17.50;91.00
6752;DHT22;3413;47.680;9.166;2023-03-20T11:49:04;17.60;90.90
6752;DHT22;3413;47.680;9.166;2023-03-20T11:54:20;17.70;90.90
6752;DHT22;3413;47.680;9.166;2023-03-20T11:59:28;17.60;90.80
6752;DHT22;3413;47.680;9.166;2023-03-20T12:04:35;17.50;90.80
6752;DHT22;3413;47.680;9.166;2023-03-20T12:10:05;17.40;90.70
6752;DHT22;3413;47.680;9.166;2023-03-20T12:20:38;17.40;90.70
6752;DHT22;3413;47.680;9.166;2023-03-20T12:36:43;17.40;90.50
6752;DHT22;3413;47.680;9.166;2023-03-20T13:20:53;18.10;90.40
6752;DHT22;3413;47.680;9.166;2023-03-20T13:31:47;18.10;90.50
6752;DHT22;3413;47.680;9.166;2023-03-20T13:37:18;18.00;90.30
6752;DHT22;3413;47.680;9.166;2023-03-20T13:42:29;18.00;90.30
6752;DHT22;3413;47.680;9.166;2023-03-20T13:47:34;17.80;90.20
6752;DHT22;3413;47.680;9.166;2023-03-20T13:52:41;17.90;90.30
6752;DHT22;3413;47.680;9.166;2023-03-20T14:13:34;18.40;90.30
6752;DHT22;3413;47.680;9.166;2023-03-20T14:18:36;18.50;90.60
6752;DHT22;3413;47.680;9.166;2023-03-20T14:44:52;18.20;89.30
6752;DHT22;3413;47.680;9.166;2023-03-20T14:50:21;18.10;89.40
6752;DHT22;3413;47.680;9.166;2023-03-20T15:00:33;18.30;89.60
6752;DHT22;3413;47.680;9.166;2023-03-20T15:05:38;18.30;89.80
6752;DHT22;3413;47.680;9.166;2023-03-20T15:10:48;18.50;90.10
6752;DHT22;3413;47.680;9.166;2023-03-20T15:15:59;18.60;90.10
6752;DHT22;3413;47.680;9.166;2023-03-20T15:21:17;18.80;90.10
6752;DHT22;3413;47.680;9.166;2023-03-20T15:26:21;18.90;90.00
6752;DHT22;3413;47.680;9.166;2023-03-20T15:31:31;18.90;90.00
6752;DHT22;3413;47.680;9.166;2023-03-20T15:36:34;18.90;90.00
6752;DHT22;3413;47.680;9.166;2023-03-20T15:41:49;19.00;90.10
6752;DHT22;3413;47.680;9.166;2023-03-20T15:52:17;19.30;89.80
6752;DHT22;3413;47.680;9.166;2023-03-20T15:57:41;19.30;89.70
6752;DHT22;3413;47.680;9.166;2023-03-20T16:02:46;19.30;89.70
6752;DHT22;3413;47.680;9.166;2023-03-20T16:07:49;19.30;89.80
6752;DHT22;3413;47.680;9.166;2023-03-20T16:12:52;19.40;90.00
6752;DHT22;3413;47.680;9.166;2023-03-20T16:17:59;19.40;89.90
6752;DHT22;3413;47.680;9.166;2023-03-20T16:23:04;19.50;89.80
6752;DHT22;3413;47.680;9.166;2023-03-20T16:28:11;19.50;89.60
6752;DHT22;3413;47.680;9.166;2023-03-20T16:33:16;19.50;89.40
6752;DHT22;3413;47.680;9.166;2023-03-20T16:38:22;19.40;89.20
6752;DHT22;3413;47.680;9.166;2023-03-20T16:43:29;19.20;88.80
6752;DHT22;3413;47.680;9.166;2023-03-20T16:48:35;19.10;88.60
6752;DHT22;3413;47.680;9.166;2023-03-20T16:53:52;19.10;88.50
6752;DHT22;3413;47.680;9.166;2023-03-20T16:58:55;19.10;88.60
6752;DHT22;3413;47.680;9.166;2023-03-20T17:04:20;19.00;88.50
6752;DHT22;3413;47.680;9.166;2023-03-20T17:09:24;19.10;88.40
6752;DHT22;3413;47.680;9.166;2023-03-20T17:14:26;19.00;88.00
6752;DHT22;3413;47.680;9.166;2023-03-20T17:19:31;18.80;87.60
6752;DHT22;3413;47.680;9.166;2023-03-20T17:24:32;18.60;87.60
6752;DHT22;3413;47.680;9.166;2023-03-20T17:29:34;18.50;87.50
6752;DHT22;3413;47.680;9.166;2023-03-20T17:34:36;18.50;87.40
6752;DHT22;3413;47.680;9.166;2023-03-20T17:39:39;18.50;87.30
6752;DHT22;3413;47.680;9.166;2023-03-20T17:44:41;18.50;87.20
6752;DHT22;3413;47.680;9.166;2023-03-20T17:49:43;18.40;87.00
6752;DHT22;3413;47.680;9.166;2023-03-20T17:54:46;18.30;86.90
6752;DHT22;3413;47.680;9.166;2023-03-20T17:59:48;17.90;86.60
6752;DHT22;3413;47.680;9.166;2023-03-20T18:04:52;17.70;86.50
6752;DHT22;3413;47.680;9.166;2023-03-20T18:09:54;17.70;86.10
6752;DHT22;3413;47.680;9.166;2023-03-20T18:14:56;17.70;86.00
6752;DHT22;3413;47.680;9.166;2023-03-20T18:19:58;17.60;85.90
6752;DHT22;3413;47.680;9.166;2023-03-20T18:25:00;17.50;85.90
6752;DHT22;3413;47.680;9.166;2023-03-20T18:30:02;17.40;85.90
6752;DHT22;3413;47.680;9.166;2023-03-20T18:35:05;17.30;85.70
6752;DHT22;3413;47.680;9.166;2023-03-20T18:45:17;17.10;85.60
6752;DHT22;3413;47.680;9.166;2023-03-20T18:55:28;16.80;85.40
6752;DHT22;3413;47.680;9.166;2023-03-20T19:00:36;16.70;85.30
6752;DHT22;3413;47.680;9.166;2023-03-20T19:05:40;16.60;85.20
6752;DHT22;3413;47.680;9.166;2023-03-20T19:10:42;16.50;85.10
6752;DHT22;3413;47.680;9.166;2023-03-20T19:15:45;16.50;85.10
6752;DHT22;3413;47.680;9.166;2023-03-20T19:20:51;16.50;85.10
6752;DHT22;3413;47.680;9.166;2023-03-20T19:25:54;16.40;85.70
6752;DHT22;3413;47.680;9.166;2023-03-20T19:30:56;16.40;85.00
6752;DHT22;3413;47.680;9.166;2023-03-20T19:35:58;16.40;85.00
6752;DHT22;3413;47.680;9.166;2023-03-20T19:41:07;16.30;84.90
6752;DHT22;3413;47.680;9.166;2023-03-20T19:46:11;16.30;84.90
6752;DHT22;3413;47.680;9.166;2023-03-20T19:51:36;16.20;85.00
6752;DHT22;3413;47.680;9.166;2023-03-20T19:56:38;16.20;85.00
6752;DHT22;3413;47.680;9.166;2023-03-20T20:01:41;16.10;85.00
6752;DHT22;3413;47.680;9.166;2023-03-20T20:06:43;16.10;85.00
6752;DHT22;3413;47.680;9.166;2023-03-20T20:11:48;16.20;85.10
6752;DHT22;3413;47.680;9.166;2023-03-20T20:16:50;16.10;85.00
6752;DHT22;3413;47.680;9.166;2023-03-20T20:21:56;16.10;85.00
6752;DHT22;3413;47.680;9.166;2023-03-20T20:27:18;15.90;84.90
6752;DHT22;3413;47.680;9.166;2023-03-20T20:32:22;15.90;84.90
6752;DHT22;3413;47.680;9.166;2023-03-20T20:37:25;15.80;84.90
6752;DHT22;3413;47.680;9.166;2023-03-20T20:42:47;15.80;84.90
6752;DHT22;3413;47.680;9.166;2023-03-20T20:47:54;15.70;84.80
6752;DHT22;3413;47.680;9.166;2023-03-20T20:52:57;15.60;84.60
6752;DHT22;3413;47.680;9.166;2023-03-20T20:57:59;15.70;84.80
6752;DHT22;3413;47.680;9.166;2023-03-20T21:03:04;15.60;84.80
6752;DHT22;3413;47.680;9.166;2023-03-20T21:08:06;15.60;84.80
6752;DHT22;3413;47.680;9.166;2023-03-20T21:13:07;15.50;84.80
6752;DHT22;3413;47.680;9.166;2023-03-20T21:18:10;15.30;84.70
6752;DHT22;3413;47.680;9.166;2023-03-20T21:23:11;15.30;84.80
6752;DHT22;3413;47.680;9.166;2023-03-20T21:28:13;15.20;84.60
6752;DHT22;3413;47.680;9.166;2023-03-20T21:33:15;15.20;84.60
6752;DHT22;3413;47.680;9.166;2023-03-20T21:38:19;15.10;84.60
6752;DHT22;3413;47.680;9.166;2023-03-20T21:43:41;15.10;84.70
6752;DHT22;3413;47.680;9.166;2023-03-20T21:48:47;14.90;84.60
6752;DHT22;3413;47.680;9.166;2023-03-20T21:54:08;14.90;84.60
6752;DHT22;3413;47.680;9.166;2023-03-20T21:59:31;14.90;84.60
6752;DHT22;3413;47.680;9.166;2023-03-20T22:04:53;14.80;84.50
6752;DHT22;3413;47.680;9.166;2023-03-20T22:10:17;14.70;84.50
6752;DHT22;3413;47.680;9.166;2023-03-20T22:15:39;14.70;84.50
6752;DHT22;3413;47.680;9.166;2023-03-20T22:21:01;14.70;84.50
6752;DHT22;3413;47.680;9.166;2023-03-20T22:26:23;14.60;84.40
6752;DHT22;3413;47.680;9.166;2023-03-20T22:31:46;14.70;84.50
6752;DHT22;3413;47.680;9.166;2023-03-20T22:37:09;14.50;84.40
6752;DHT22;3413;47.680;9.166;2023-03-20T22:42:31;14.50;84.50
6752;DHT22;3413;47.680;9.166;2023-03-20T22:47:53;14.40;84.50
6752;DHT22;3413;47.680;9.166;2023-03-20T22:52:55;14.30;84.40
6752;DHT22;3413;47.680;9.166;2023-03-20T22:57:57;14.30;84.40
6752;DHT22;3413;47.680;9.166;2023-03-20T23:03:09;14.30;84.40
6752;DHT22;3413;47.680;9.166;2023-03-20T23:08:30;14.30;84.40
6752;DHT22;3413;47.680;9.166;2023-03-20T23:13:40;14.30;84.30
6752;DHT22;3413;47.680;9.166;2023-03-20T23:18:42;14.30;84.30
6752;DHT22;3413;47.680;9.166;2023-03-20T23:23:45;14.30;84.30
6752;DHT22;3413;47.680;9.166;2023-03-20T23:28:48;14.20;84.10
6752;DHT22;3413;47.680;9.166;2023-03-20T23:33:53;14.10;84.10
6752;DHT22;3413;47.680;9.166;2023-03-20T23:38:56;13.90;84.00
6752;DHT22;3413;47.680;9.166;2023-03-20T23:43:57;13.80;83.90
6752;DHT22;3413;47.680;9.166;2023-03-20T23:48:59;13.60;83.80
6752;DHT22;3413;47.680;9.166;2023-03-20T23:54:01;13.50;83.70
6752;DHT22;3413;47.680;9.166;2023-03-20T23:59:03;13.50;83.70
